• Join FlightAware (Why Join?)
  • Login
  • US Flag 
 
11:11PM EST


 

Airport Tracker/Info


-or-


 

Live Flight TrackerFlight Track Log ✈ N960DL ✈ 13-Apr-2013 ✈ KBUF - KATL

Flight Track Log - Related Links

Times and Time Zones

All times are in EDT time to prevent confusion due to time zone crossing. See the N960DL flight status page for this flight to view local times or setup timezone preferences in your user account.

Time Position Orientation Groundspeed Altitude Reporting Facility
EDT Latitude Longitude Course Direction KTS MPH feet Rate Location/Type
06:09AM 42.9333 -78.7500 206° Southwest 145 167 2,300  Level Buffalo TRACON
06:10AM 42.8833 -78.7833 206° Southwest 209 241 3,700 1,740 Climbing Buffalo TRACON
06:10AM 42.8617 -78.8272 236° Southwest 234 269 4,700 3,000 Climbing Cleveland Center
06:11AM 42.8036 -78.8514 197° South 263 303 7,800 2,640 Climbing Cleveland Center
06:12AM 42.7417 -78.8814 200° South 271 312 10,000 1,140 Climbing Cleveland Center
06:13AM 42.6544 -78.9147 196° South 273 314 10,100 300 Climbing Cleveland Center
06:14AM 42.5633 -78.9567 199° South 323 372 10,600 1,800 Climbing Cleveland Center
06:15AM 42.4703 -79.0042 201° Southwest 341 392 13,700 2,700 Climbing Cleveland Center
06:16AM 42.3878 -79.0594 206° Southwest 370 426 16,100 2,400 Climbing Cleveland Center
06:17AM 42.2969 -79.1292 210° Southwest 375 432 18,600 2,280 Climbing Cleveland Center
06:18AM 42.2039 -79.1928 207° Southwest 380 437 20,700 2,040 Climbing Cleveland Center
06:19AM 42.1044 -79.2622 207° Southwest 390 449 22,700 1,860 Climbing Cleveland Center
06:20AM 42.0094 -79.3283 207° Southwest 390 449 24,500 1,860 Climbing Cleveland Center
06:21AM 41.9122 -79.4000 209° Southwest 390 449 26,500 2,100 Climbing Cleveland Center
06:22AM 41.8169 -79.4658 207° Southwest 390 449 28,700 1,800 Climbing Cleveland Center
06:23AM 41.7239 -79.5344 209° Southwest 390 449 30,200 1,560 Climbing Cleveland Center
06:24AM 41.6306 -79.5969 207° Southwest 385 443 31,900 1,260 Climbing Cleveland Center
06:25AM 41.5414 -79.6594 208° Southwest 379 436 32,800 840 Climbing Cleveland Center
06:26AM 41.4522 -79.7217 208° Southwest 374 430 33,600 600 Climbing Cleveland Center
06:27AM 41.3611 -79.7864 208° Southwest 374 430 34,000 180 Climbing Cleveland Center
06:28AM 41.2719 -79.8483 208° Southwest 369 425 34,000  Level Cleveland Center
06:29AM 41.1722 -79.9183 208° Southwest 369 425 34,000  Level Cleveland Center
06:30AM 41.0975 -79.9686 207° Southwest 364 419 34,000  Level Cleveland Center
06:31AM 41.0061 -80.0300 207° Southwest 364 419 34,000  Level Cleveland Center
06:32AM 40.9167 -80.0914 207° Southwest 364 419 34,000  Level Cleveland Center
06:33AM 40.8189 -80.1633 209° Southwest 370 426 34,000  Level Cleveland Center
06:34AM 40.7317 -80.2242 208° Southwest 370 426 34,000  Level Cleveland Center
06:35AM 40.6400 -80.2847 207° Southwest 370 426 34,000  Level Cleveland Center
06:36AM 40.5506 -80.3453 207° Southwest 370 426 34,000  Level Cleveland Center
06:37AM 40.4672 -80.4031 208° Southwest 359 413 34,000  Level Cleveland Center
06:38AM 40.3778 -80.4606 206° Southwest 354 407 34,000  Level Cleveland Center
06:39AM 40.2903 -80.5178 207° Southwest 354 407 34,000  Level Cleveland Center
06:40AM 40.2028 -80.5778 208° Southwest 354 407 34,000  Level Cleveland Center
06:41AM 40.1150 -80.6375 207° Southwest 354 407 34,000  Level Cleveland Center
06:42AM 39.9833 -80.7228 206° Southwest 355 409 34,000  Level Indianapolis Center
06:43AM 39.8869 -80.7867 207° Southwest 350 403 34,000  Level Indianapolis Center
06:45AM 39.7994 -80.8433 206° Southwest 349 402 34,000  Level Indianapolis Center
06:46AM 39.7122 -80.9017 207° Southwest 352 405 34,000  Level Indianapolis Center
06:47AM 39.6239 -80.9594 207° Southwest 355 409 34,000  Level Indianapolis Center
06:48AM 39.5333 -81.0178 206° Southwest 362 417 34,000  Level Indianapolis Center
06:49AM 39.4436 -81.0758 207° Southwest 359 413 34,000  Level Indianapolis Center
06:50AM 39.3533 -81.1319 206° Southwest 360 414 34,000  Level Indianapolis Center
06:51AM 39.2622 -81.1900 206° Southwest 364 419 34,000  Level Indianapolis Center
06:52AM 39.1722 -81.2478 206° Southwest 362 417 34,000  Level Indianapolis Center
06:53AM 39.0817 -81.3056 206° Southwest 362 417 34,000  Level Indianapolis Center
06:54AM 38.9903 -81.3633 206° Southwest 363 418 34,000  Level Indianapolis Center
06:55AM 38.8992 -81.4217 206° Southwest 365 420 34,000  Level Indianapolis Center
06:56AM 38.8078 -81.4808 207° Southwest 367 422 34,000  Level Indianapolis Center
06:57AM 38.7117 -81.5419 206° Southwest 368 423 34,000  Level Indianapolis Center
06:58AM 38.6192 -81.5997 206° Southwest 370 426 34,000  Level Indianapolis Center
06:59AM 38.5214 -81.6639 207° Southwest 371 427 34,000  Level Indianapolis Center
07:00AM 38.4292 -81.7225 206° Southwest 370 426 34,000  Level Indianapolis Center
07:01AM 38.3356 -81.7797 206° Southwest 371 427 34,000  Level Indianapolis Center
07:02AM 38.2350 -81.8228 199° South 378 435 34,000  Level Indianapolis Center
07:03AM 38.1325 -81.8647 198° South 386 444 34,000  Level Indianapolis Center
07:04AM 38.0319 -81.9069 198° South 381 438 34,000  Level Indianapolis Center
07:05AM 37.9294 -81.9489 198° South 384 442 34,000  Level Indianapolis Center
07:06AM 37.8172 -81.9989 199° South 383 441 34,000  Level Indianapolis Center
07:07AM 37.7158 -82.0417 198° South 382 440 34,000  Level Indianapolis Center
07:08AM 37.6122 -82.0856 199° South 389 448 34,000  Level Indianapolis Center
07:09AM 37.5108 -82.1289 199° South 386 444 34,000  Level Indianapolis Center
07:10AM 37.4075 -82.1731 199° South 388 447 34,000  Level Indianapolis Center
07:10AM 37.3664 -82.1953 203° Southwest 390 449 34,000  Level Atlanta Center
07:11AM 37.2647 -82.2369 198° South 390 449 34,000  Level Atlanta Center
07:12AM 37.1592 -82.2808 198° South 390 449 34,000  Level Atlanta Center
07:13AM 37.0578 -82.3247 199° South 390 449 34,000  Level Atlanta Center
07:14AM 36.9539 -82.3661 198° South 390 449 34,000  Level Atlanta Center
07:15AM 36.8883 -82.3939 199° South 393 452 34,000  Level Indianapolis Center
07:15AM 36.8503 -82.4097 198° South 390 449 34,000  Level Atlanta Center
07:16AM 36.7444 -82.4533 198° South 396 456 34,000  Level Atlanta Center
07:17AM 36.6408 -82.4967 199° South 401 461 34,000  Level Atlanta Center
07:18AM 36.5372 -82.5400 199° South 401 461 34,000  Level Atlanta Center
07:19AM 36.4333 -82.5833 199° South 401 461 34,000  Level Atlanta Center
07:20AM 36.3317 -82.6264 199° South 401 461 34,000  Level Atlanta Center
07:21AM 36.2300 -82.6694 199° South 401 461 34,000  Level Atlanta Center
07:22AM 36.1367 -82.7094 199° South 396 456 34,000  Level Atlanta Center
07:23AM 36.0347 -82.7522 199° South 390 449 34,000  Level Atlanta Center
07:24AM 35.9331 -82.7975 200° South 390 449 34,000  Level Atlanta Center
07:25AM 35.8272 -82.8400 198° South 395 455 34,000  Level Atlanta Center
07:26AM 35.7275 -82.8850 200° South 390 449 34,000  Level Atlanta Center
07:27AM 35.6319 -82.9425 206° Southwest 383 441 34,000 -900 Level Atlanta Center
07:28AM 35.5344 -83.0000 206° Southwest 383 441 32,300 -1,920 Descending Atlanta Center
07:29AM 35.4411 -83.0572 207° Southwest 383 441 30,200 -2,400 Descending Atlanta Center
07:30AM 35.3414 -83.1144 205° Southwest 390 449 27,600 -2,400 Descending Atlanta Center
07:31AM 35.2375 -83.1792 207° Southwest 405 466 25,500 -1,860 Descending Atlanta Center
07:32AM 35.1378 -83.2386 206° Southwest 412 474 24,000 -780 Descending Atlanta Center
07:33AM 35.0339 -83.3006 206° Southwest 407 468 24,000  Level Atlanta Center
07:34AM 34.9403 -83.3547 205° Southwest 394 453 24,000  Level Atlanta Center
07:35AM 34.8486 -83.4086 206° Southwest 380 437 24,000 -540 Level Atlanta Center
07:36AM 34.7572 -83.4622 206° Southwest 366 421 23,000 -1,200 Descending Atlanta Center
07:37AM 34.6675 -83.5161 206° Southwest 361 415 21,600 -1,500 Descending Atlanta Center
07:38AM 34.5761 -83.5644 204° Southwest 361 415 20,000 -1,500 Descending Atlanta Center
07:39AM 34.4886 -83.6153 206° Southwest 356 410 18,600 -1,500 Descending Atlanta Center
07:40AM 34.3947 -83.6739 207° Southwest 356 410 17,100 -1,500 Descending Atlanta Center
07:41AM 34.3072 -83.7194 203° Southwest 356 410 15,600 -1,680 Descending Atlanta Center
07:42AM 34.2197 -83.7700 206° Southwest 356 410 13,800 -1,800 Descending Atlanta Center
07:43AM 34.1322 -83.8231 207° Southwest 351 404 12,000 -960 Descending Atlanta Center
07:44AM 34.0592 -83.8733 210° Southwest 330 380 11,900 -180 Descending Atlanta Center
07:44AM 34.0500 -83.9000 247° West 274 315 11,800 -1,080 Descending Atlanta TRACON
07:45AM 33.9833 -83.9500 212° Southwest 273 314 10,500 -1,380 Descending Atlanta TRACON
07:46AM 33.9000 -83.9500 180° South 280 322 9,100 -900 Descending Atlanta TRACON
07:47AM 33.8569 -83.9614 192° South 272 313 9,000 -60 Descending Atlanta Center
07:48AM 33.7775 -83.9664 183° South 286 329 9,000 -780 Level Atlanta Center
07:49AM 33.7044 -83.9914 196° South 286 329 7,500 -1,020 Descending Atlanta Center
07:50AM 33.6522 -84.0439 220° Southwest 235 270 7,000 -660 Descending Atlanta Center
07:51AM 33.6314 -84.1061 248° West 220 253 6,200 -1,020 Descending Atlanta Center
07:51AM 33.6333 -84.1333 275° West 201 231 5,700 -1,260 Descending Atlanta TRACON
07:52AM 33.6333 -84.2000 270° West 200 230 4,600 -1,080 Descending Atlanta TRACON
07:53AM 33.6333 -84.2667 270° West 189 217 3,600 -960 Descending Atlanta TRACON
07:54AM 33.6333 -84.3167 270° West 167 192 2,700 -840 Descending Atlanta TRACON
07:55AM 33.6333 -84.3667 270° West 130 150 2,000 -720 Descending Atlanta TRACON